Aviation Digital Data Service (ADDS)

Output produced by METARs form (1936 UTC 25 March 2017)
found at http://www.aviationweather.gov/adds/metars/
 
LUKK 251930Z 27006KT 9999 FEW049 07/00 Q1016 R08/D NOSIG
TAF LUKK 251720Z 2518/2618 VRB06KT 9999 BKN035 
     TEMPO 2520/2523 BKN015 
     BECMG 2523/2524 5000 RA BR BKN015 
     TEMPO 2600/2615 2400 SHRA BR BKN004 SCT015CB 
     BECMG 2608/1610 35012KT
       
LUKK 251930Z 27006KT 9999 FEW049 07/00 Q1016 R08/D NOSIG
TAF LUKK 251720Z 2518/2618 VRB06KT 9999 BKN035 
     TEMPO 2520/2523 BKN015 
     BECMG 2523/2524 5000 RA BR BKN015 
     TEMPO 2600/2615 2400 SHRA BR BKN004 SCT015CB 
     BECMG 2608/1610 35012KT